createdAt,value
2023-04-02T00:01:27.277Z,40.54
2023-04-02T00:06:40.534Z,40.30
2023-04-02T00:11:46.059Z,40.68
2023-04-02T00:16:48.593Z,40.42
2023-04-02T00:21:52.637Z,40.72
2023-04-02T00:26:56.308Z,41.34
2023-04-02T00:32:00.490Z,41.96
2023-04-02T00:37:03.379Z,41.71
2023-04-02T00:42:06.776Z,41.90
2023-04-02T00:47:19.195Z,41.63
2023-04-02T00:52:25.608Z,41.79
2023-04-02T00:57:28.544Z,41.78
2023-04-02T01:02:38.720Z,41.85
2023-04-02T01:08:31.582Z,41.63
2023-04-02T01:14:02.807Z,42.63
2023-04-02T01:19:14.086Z,42.29
2023-04-02T01:24:16.384Z,42.45
2023-04-02T01:29:35.586Z,42.38
2023-04-02T01:34:39.200Z,42.62
2023-04-02T01:39:55.357Z,42.90
2023-04-02T01:45:05.201Z,43.00
2023-04-02T01:50:13.360Z,43.19
2023-04-02T01:55:21.751Z,43.12
2023-04-02T02:00:25.016Z,43.44
2023-04-02T02:05:28.023Z,43.57
2023-04-02T02:10:36.821Z,43.99
2023-04-02T02:15:39.511Z,43.92
2023-04-02T02:20:42.551Z,43.93
2023-04-02T02:25:47.293Z,44.17
2023-04-02T02:30:57.963Z,44.88
2023-04-02T02:36:02.428Z,47.52
2023-04-02T02:41:18.360Z,48.28
2023-04-02T02:46:24.110Z,47.31
2023-04-02T02:52:15.480Z,47.29
2023-04-02T02:57:29.122Z,47.23
2023-04-02T03:02:35.616Z,46.50
2023-04-02T03:07:38.692Z,46.34
2023-04-02T03:13:23.692Z,45.87
2023-04-02T03:18:44.021Z,45.92
2023-04-02T03:23:57.973Z,45.78
2023-04-02T03:29:15.816Z,45.45
2023-04-02T03:34:27.182Z,45.61
2023-04-02T03:39:44.140Z,45.20
2023-04-02T03:44:52.931Z,45.60
2023-04-02T03:50:01.711Z,45.86
2023-04-02T03:55:30.877Z,45.74
2023-04-02T04:00:58.260Z,45.80
2023-04-02T04:06:10.915Z,45.60
2023-04-02T04:11:19.006Z,45.98
2023-04-02T04:16:30.376Z,45.62
2023-04-02T04:21:38.613Z,46.06
2023-04-02T04:26:49.850Z,45.85
2023-04-02T04:31:55.964Z,46.16
2023-04-02T04:37:02.498Z,45.80
2023-04-02T04:42:07.736Z,46.42
2023-04-02T04:47:17.874Z,46.67
2023-04-02T04:52:27.233Z,46.18
2023-04-02T04:57:38.727Z,45.70
2023-04-02T05:03:06.432Z,45.85
2023-04-02T05:08:31.248Z,45.74
2023-04-02T05:13:58.978Z,46.19
2023-04-02T05:19:11.011Z,46.20
2023-04-02T05:24:28.215Z,46.10
2023-04-02T05:29:36.623Z,45.78
2023-04-02T05:34:41.991Z,45.68
2023-04-02T05:39:46.547Z,45.87
2023-04-02T05:45:44.096Z,46.20
2023-04-02T05:50:52.266Z,46.96
2023-04-02T05:56:12.990Z,46.82
2023-04-02T06:01:33.980Z,46.61
2023-04-02T06:06:42.921Z,46.85
2023-04-02T06:11:50.565Z,46.91
2023-04-02T06:16:52.827Z,47.07
2023-04-02T06:22:01.106Z,46.81
2023-04-02T06:27:08.801Z,46.50
2023-04-02T06:32:13.382Z,46.61
2023-04-02T06:37:28.355Z,47.23
2023-04-02T06:42:40.344Z,47.99
2023-04-02T06:47:47.468Z,47.09
2023-04-02T06:52:53.881Z,47.26
2023-04-02T06:57:56.429Z,47.51
2023-04-02T07:03:02.599Z,48.39
2023-04-02T07:08:04.937Z,50.44
2023-04-02T07:13:07.300Z,50.99
2023-04-02T07:18:26.816Z,51.79
2023-04-02T07:23:29.055Z,52.47
2023-04-02T07:28:31.417Z,52.97
2023-04-02T07:33:33.500Z,52.53
2023-04-02T07:38:35.753Z,52.48
2023-04-02T07:43:38.776Z,51.55
2023-04-02T07:48:41.118Z,52.34
2023-04-02T07:53:43.335Z,52.09
2023-04-02T07:58:46.851Z,52.93
2023-04-02T08:03:50.811Z,52.21
2023-04-02T08:08:54.570Z,52.54
2023-04-02T08:13:56.722Z,52.50
2023-04-02T08:18:59.185Z,52.23
2023-04-02T08:24:01.344Z,52.28
2023-04-02T08:29:04.584Z,52.13
2023-04-02T08:34:07.252Z,51.42
2023-04-02T08:39:13.781Z,51.66
2023-04-02T08:44:47.924Z,53.78
2023-04-02T08:49:58.761Z,57.56
2023-04-02T08:55:03.592Z,57.91
2023-04-02T09:00:37.413Z,57.99
2023-04-02T09:05:43.708Z,56.82
2023-04-02T09:11:09.681Z,54.98
2023-04-02T09:16:14.995Z,55.79
2023-04-02T09:21:36.802Z,51.52
2023-04-02T09:26:38.988Z,50.82
2023-04-02T09:31:46.861Z,49.16
2023-04-02T09:36:49.012Z,48.64
2023-04-02T09:42:02.872Z,46.52
2023-04-02T09:47:25.389Z,45.98
2023-04-02T09:52:28.885Z,45.33
2023-04-02T09:57:31.582Z,45.10
2023-04-02T10:02:33.904Z,46.16
2023-04-02T10:07:42.542Z,43.76
2023-04-02T10:12:48.405Z,44.13
2023-04-02T10:18:16.483Z,44.11
2023-04-02T10:23:20.145Z,43.03
2023-04-02T10:28:39.697Z,42.94
2023-04-02T10:33:47.445Z,41.55
2023-04-02T10:39:08.834Z,39.58
2023-04-02T10:44:48.105Z,37.57
2023-04-02T10:50:24.799Z,37.59
2023-04-02T10:55:32.638Z,37.89
2023-04-02T11:00:40.979Z,37.42
2023-04-02T11:05:45.563Z,38.16
2023-04-02T11:11:00.025Z,37.52
2023-04-02T11:16:02.574Z,37.17
2023-04-02T11:21:55.088Z,37.68
2023-04-02T11:27:16.369Z,37.25
2023-04-02T11:32:21.536Z,36.05
2023-04-02T11:37:44.524Z,35.63
2023-04-02T11:42:51.342Z,35.59
2023-04-02T11:48:04.116Z,34.08
2023-04-02T11:53:12.086Z,34.73
2023-04-02T11:58:44.979Z,33.98
2023-04-02T12:04:11.773Z,33.98
2023-04-02T12:09:24.289Z,33.11
2023-04-02T12:14:44.015Z,32.28
2023-04-02T12:19:55.084Z,32.45
2023-04-02T12:25:04.871Z,32.02
2023-04-02T12:30:18.141Z,31.61
2023-04-02T12:35:36.846Z,32.23
2023-04-02T12:40:39.340Z,32.45
2023-04-02T12:45:41.530Z,31.98
2023-04-02T12:50:43.829Z,31.13
2023-04-02T12:55:49.073Z,30.95
2023-04-02T13:00:51.407Z,31.58
2023-04-02T13:05:55.804Z,31.19
2023-04-02T13:11:06.402Z,30.66
2023-04-02T13:16:18.019Z,29.87
2023-04-02T13:21:20.217Z,29.78
2023-04-02T13:26:28.828Z,29.90
2023-04-02T13:31:32.946Z,29.24
2023-04-02T13:36:35.428Z,29.85
2023-04-02T13:41:45.627Z,28.67
2023-04-02T13:46:47.978Z,28.48
2023-04-02T13:52:03.412Z,27.96
2023-04-02T13:57:06.338Z,27.32
2023-04-02T14:02:26.828Z,27.07
2023-04-02T14:07:47.342Z,27.01
2023-04-02T14:12:57.999Z,25.85
2023-04-02T14:18:29.386Z,27.20
2023-04-02T14:23:45.929Z,26.28
2023-04-02T14:29:01.971Z,26.71
2023-04-02T14:34:25.402Z,25.79
2023-04-02T14:39:47.162Z,25.74
2023-04-02T14:45:11.426Z,25.10
2023-04-02T14:50:20.008Z,25.39
2023-04-02T14:55:44.349Z,24.35
2023-04-02T15:00:58.193Z,21.34
2023-04-02T15:06:11.072Z,20.31
2023-04-02T15:11:13.370Z,20.68
2023-04-02T15:16:23.146Z,20.08
2023-04-02T15:22:01.100Z,18.29
2023-04-02T15:27:25.362Z,18.51
2023-04-02T15:32:38.058Z,19.37
2023-04-02T15:37:48.984Z,21.56
2023-04-02T15:43:06.491Z,21.25
2023-04-02T15:48:59.478Z,21.67
2023-04-02T15:54:07.211Z,22.46
2023-04-02T15:59:27.540Z,23.85
2023-04-02T16:04:48.327Z,24.88
2023-04-02T16:10:10.211Z,26.04
2023-04-02T16:15:24.030Z,28.29
2023-04-02T16:20:37.380Z,29.83
2023-04-02T16:26:06.959Z,30.77
2023-04-02T16:31:14.612Z,31.56
2023-04-02T16:36:26.029Z,32.16
2023-04-02T16:41:34.002Z,32.84
2023-04-02T16:46:54.706Z,33.40
2023-04-02T16:52:23.042Z,34.21
2023-04-02T16:57:30.726Z,34.67
2023-04-02T17:02:51.283Z,34.88
2023-04-02T17:08:28.337Z,35.16
2023-04-02T17:13:47.362Z,35.59
2023-04-02T17:18:52.707Z,36.20
2023-04-02T17:23:58.363Z,36.72
2023-04-02T17:29:06.485Z,37.05
2023-04-02T17:34:17.343Z,37.38
2023-04-02T17:39:35.990Z,37.55
2023-04-02T17:44:59.321Z,37.53
2023-04-02T17:50:29.634Z,37.38
2023-04-02T17:55:41.104Z,37.71
2023-04-02T18:01:03.350Z,37.62
2023-04-02T18:06:15.833Z,37.98
2023-04-02T18:11:39.169Z,37.90
2023-04-02T18:17:08.863Z,37.91
2023-04-02T18:22:27.947Z,38.63
2023-04-02T18:27:56.132Z,38.74
2023-04-02T18:33:15.081Z,39.27
2023-04-02T18:38:19.981Z,39.71
2023-04-02T18:43:27.690Z,39.67
2023-04-02T18:48:55.104Z,39.81
2023-04-02T18:54:20.686Z,40.00
2023-04-02T18:59:48.297Z,39.87
2023-04-02T19:05:27.650Z,40.29
2023-04-02T19:10:34.528Z,40.47
2023-04-02T19:16:12.928Z,40.87
2023-04-02T19:21:26.986Z,41.08
2023-04-02T19:26:51.607Z,40.94
2023-04-02T19:32:10.595Z,41.61
2023-04-02T19:37:38.776Z,41.63
2023-04-02T19:42:48.804Z,41.92
2023-04-02T19:47:51.023Z,42.04
2023-04-02T19:52:53.475Z,42.43
2023-04-02T19:58:08.482Z,42.39
2023-04-02T20:03:18.130Z,42.60
2023-04-02T20:08:20.900Z,42.66
2023-04-02T20:13:23.123Z,42.67
2023-04-02T20:18:27.158Z,43.06
2023-04-02T20:23:29.340Z,43.22
2023-04-02T20:28:32.162Z,43.41
2023-04-02T20:33:34.681Z,43.84
2023-04-02T20:38:37.841Z,44.04
2023-04-02T20:43:41.326Z,44.46
2023-04-02T20:48:43.906Z,44.94
2023-04-02T20:53:46.890Z,45.12
2023-04-02T20:58:49.392Z,45.46
2023-04-02T21:03:56.812Z,45.48
2023-04-02T21:08:59.322Z,45.57
2023-04-02T21:14:01.934Z,45.73
2023-04-02T21:19:07.545Z,45.83
2023-04-02T21:24:10.065Z,45.48
2023-04-02T21:29:12.695Z,46.19
2023-04-02T21:34:17.161Z,46.17
2023-04-02T21:39:22.013Z,46.36
2023-04-02T21:44:25.032Z,46.80
2023-04-02T21:49:28.196Z,47.16
2023-04-02T21:54:30.729Z,47.02
2023-04-02T21:59:32.848Z,46.97
2023-04-02T22:04:34.999Z,47.09
2023-04-02T22:09:37.099Z,47.96
2023-04-02T22:14:39.201Z,47.97
2023-04-02T22:19:41.356Z,48.08
2023-04-02T22:24:43.525Z,48.21
2023-04-02T22:29:45.679Z,48.27
2023-04-02T22:34:47.870Z,48.38
2023-04-02T22:39:49.979Z,48.18
2023-04-02T22:44:52.058Z,48.55
2023-04-02T22:49:54.189Z,49.02
2023-04-02T22:54:56.417Z,49.69
2023-04-02T22:59:58.606Z,49.48
2023-04-02T23:05:00.965Z,49.29
2023-04-02T23:10:04.606Z,49.21
2023-04-02T23:15:08.665Z,48.94
2023-04-02T23:20:12.624Z,48.78
2023-04-02T23:25:14.887Z,48.83
2023-04-02T23:30:17.124Z,49.04
2023-04-02T23:35:19.294Z,49.13
2023-04-02T23:40:21.518Z,49.46
2023-04-02T23:45:23.724Z,48.82
2023-04-02T23:50:26.330Z,52.30
2023-04-02T23:55:28.455Z,52.22
